sensor_id;sensor_type;location;lat;lon;timestamp;P1;durP1;ratioP1;P2;durP2;ratioP2
19653;SDS011;9975;48.046;7.804;2022-07-29T02:04:11;7.40;;;5.30;;
19653;SDS011;9975;48.046;7.804;2022-07-29T02:06:38;6.03;;;5.53;;
19653;SDS011;9975;48.046;7.804;2022-07-29T02:09:07;6.10;;;4.73;;
19653;SDS011;9975;48.046;7.804;2022-07-29T02:11:35;5.90;;;5.17;;
19653;SDS011;9975;48.046;7.804;2022-07-29T02:14:02;7.90;;;6.07;;
19653;SDS011;9975;48.046;7.804;2022-07-29T02:16:30;7.37;;;5.37;;
19653;SDS011;9975;48.046;7.804;2022-07-29T02:18:57;5.30;;;4.80;;
19653;SDS011;9975;48.046;7.804;2022-07-29T02:21:24;6.10;;;5.50;;
19653;SDS011;9975;48.046;7.804;2022-07-29T02:23:52;5.80;;;5.00;;
19653;SDS011;9975;48.046;7.804;2022-07-29T02:26:20;7.20;;;5.50;;
19653;SDS011;9975;48.046;7.804;2022-07-29T02:28:48;6.57;;;5.23;;
19653;SDS011;9975;48.046;7.804;2022-07-29T02:31:16;6.23;;;5.63;;
19653;SDS011;9975;48.046;7.804;2022-07-29T02:33:44;6.17;;;5.17;;
19653;SDS011;9975;48.046;7.804;2022-07-29T02:36:11;6.03;;;5.43;;
19653;SDS011;9975;48.046;7.804;2022-07-29T02:38:38;5.70;;;5.10;;
19653;SDS011;9975;48.046;7.804;2022-07-29T02:41:17;5.93;;;5.20;;
19653;SDS011;9975;48.046;7.804;2022-07-29T02:44:13;5.83;;;5.30;;
19653;SDS011;9975;48.046;7.804;2022-07-29T02:46:49;6.73;;;6.13;;
19653;SDS011;9975;48.046;7.804;2022-07-29T02:49:35;5.77;;;5.17;;
19653;SDS011;9975;48.046;7.804;2022-07-29T02:54:56;5.83;;;5.33;;
19653;SDS011;9975;48.046;7.804;2022-07-29T03:00:04;7.30;;;5.00;;
19653;SDS011;9975;48.046;7.804;2022-07-29T03:02:39;8.40;;;5.30;;
19653;SDS011;9975;48.046;7.804;2022-07-29T03:05:09;7.17;;;6.47;;
19653;SDS011;9975;48.046;7.804;2022-07-29T03:07:40;5.83;;;5.30;;
19653;SDS011;9975;48.046;7.804;2022-07-29T03:10:10;10.43;;;5.50;;
19653;SDS011;9975;48.046;7.804;2022-07-29T03:12:37;5.70;;;4.60;;
19653;SDS011;9975;48.046;7.804;2022-07-29T03:15:04;5.73;;;5.23;;
19653;SDS011;9975;48.046;7.804;2022-07-29T03:17:31;6.20;;;5.60;;
19653;SDS011;9975;48.046;7.804;2022-07-29T03:19:57;5.60;;;5.10;;
19653;SDS011;9975;48.046;7.804;2022-07-29T03:22:24;5.90;;;5.30;;
19653;SDS011;9975;48.046;7.804;2022-07-29T03:24:50;5.37;;;4.87;;
19653;SDS011;9975;48.046;7.804;2022-07-29T03:27:15;7.37;;;5.97;;
19653;SDS011;9975;48.046;7.804;2022-07-29T03:29:41;5.37;;;4.87;;
19653;SDS011;9975;48.046;7.804;2022-07-29T03:32:07;5.50;;;5.00;;
19653;SDS011;9975;48.046;7.804;2022-07-29T03:34:32;7.23;;;6.00;;
19653;SDS011;9975;48.046;7.804;2022-07-29T03:36:58;5.60;;;5.10;;
19653;SDS011;9975;48.046;7.804;2022-07-29T03:39:25;5.20;;;4.70;;
19653;SDS011;9975;48.046;7.804;2022-07-29T03:41:55;6.07;;;5.53;;
19653;SDS011;9975;48.046;7.804;2022-07-29T03:44:22;6.40;;;5.77;;
19653;SDS011;9975;48.046;7.804;2022-07-29T03:46:50;5.90;;;5.30;;
19653;SDS011;9975;48.046;7.804;2022-07-29T03:49:16;6.87;;;5.00;;
19653;SDS011;9975;48.046;7.804;2022-07-29T03:51:44;7.43;;;5.07;;
19653;SDS011;9975;48.046;7.804;2022-07-29T03:54:10;5.43;;;4.93;;
19653;SDS011;9975;48.046;7.804;2022-07-29T03:56:40;7.03;;;5.63;;
19653;SDS011;9975;48.046;7.804;2022-07-29T03:59:09;5.60;;;5.07;;
19653;SDS011;9975;48.046;7.804;2022-07-29T04:01:36;5.87;;;5.27;;
19653;SDS011;9975;48.046;7.804;2022-07-29T04:04:04;5.67;;;5.10;;
19653;SDS011;9975;48.046;7.804;2022-07-29T04:06:37;5.70;;;5.10;;
19653;SDS011;9975;48.046;7.804;2022-07-29T04:09:06;5.83;;;5.20;;
19653;SDS011;9975;48.046;7.804;2022-07-29T04:11:33;5.70;;;5.13;;
19653;SDS011;9975;48.046;7.804;2022-07-29T04:13:59;11.00;;;4.90;;
19653;SDS011;9975;48.046;7.804;2022-07-29T04:16:24;6.33;;;5.63;;
19653;SDS011;9975;48.046;7.804;2022-07-29T04:18:50;6.20;;;5.60;;
19653;SDS011;9975;48.046;7.804;2022-07-29T04:21:16;7.30;;;4.77;;
19653;SDS011;9975;48.046;7.804;2022-07-29T04:23:41;5.33;;;4.83;;
19653;SDS011;9975;48.046;7.804;2022-07-29T04:26:10;8.27;;;6.53;;
19653;SDS011;9975;48.046;7.804;2022-07-29T04:28:35;6.57;;;5.60;;
19653;SDS011;9975;48.046;7.804;2022-07-29T04:31:03;6.17;;;5.57;;
19653;SDS011;9975;48.046;7.804;2022-07-29T04:33:28;6.70;;;5.37;;
19653;SDS011;9975;48.046;7.804;2022-07-29T04:35:54;6.17;;;4.70;;
19653;SDS011;9975;48.046;7.804;2022-07-29T04:38:20;7.00;;;4.93;;
19653;SDS011;9975;48.046;7.804;2022-07-29T04:40:45;6.67;;;6.00;;
19653;SDS011;9975;48.046;7.804;2022-07-29T04:43:11;7.43;;;5.00;;
19653;SDS011;9975;48.046;7.804;2022-07-29T04:45:36;5.40;;;4.90;;
19653;SDS011;9975;48.046;7.804;2022-07-29T04:48:02;14.20;;;5.70;;
19653;SDS011;9975;48.046;7.804;2022-07-29T04:50:28;6.60;;;5.20;;
19653;SDS011;9975;48.046;7.804;2022-07-29T04:52:53;4.70;;;4.30;;
19653;SDS011;9975;48.046;7.804;2022-07-29T04:55:19;5.53;;;5.03;;
19653;SDS011;9975;48.046;7.804;2022-07-29T04:57:45;8.20;;;5.80;;
19653;SDS011;9975;48.046;7.804;2022-07-29T05:00:10;7.27;;;5.10;;
19653;SDS011;9975;48.046;7.804;2022-07-29T05:02:37;6.17;;;5.00;;
19653;SDS011;9975;48.046;7.804;2022-07-29T05:05:02;6.30;;;4.40;;
19653;SDS011;9975;48.046;7.804;2022-07-29T05:07:28;7.63;;;5.67;;
19653;SDS011;9975;48.046;7.804;2022-07-29T05:09:54;5.10;;;4.70;;
19653;SDS011;9975;48.046;7.804;2022-07-29T05:12:21;5.10;;;4.70;;
19653;SDS011;9975;48.046;7.804;2022-07-29T05:14:48;5.27;;;4.77;;
19653;SDS011;9975;48.046;7.804;2022-07-29T05:17:13;9.50;;;5.30;;
19653;SDS011;9975;48.046;7.804;2022-07-29T05:19:39;10.33;;;5.03;;
19653;SDS011;9975;48.046;7.804;2022-07-29T05:22:04;6.03;;;4.60;;
19653;SDS011;9975;48.046;7.804;2022-07-29T05:24:30;7.03;;;5.20;;
19653;SDS011;9975;48.046;7.804;2022-07-29T05:26:56;5.93;;;5.30;;
19653;SDS011;9975;48.046;7.804;2022-07-29T05:29:21;5.73;;;4.40;;
19653;SDS011;9975;48.046;7.804;2022-07-29T05:31:47;6.53;;;4.90;;
19653;SDS011;9975;48.046;7.804;2022-07-29T05:34:13;7.13;;;4.47;;
19653;SDS011;9975;48.046;7.804;2022-07-29T05:36:38;6.40;;;4.60;;
19653;SDS011;9975;48.046;7.804;2022-07-29T05:39:04;7.23;;;4.60;;
19653;SDS011;9975;48.046;7.804;2022-07-29T05:41:32;5.17;;;4.77;;
19653;SDS011;9975;48.046;7.804;2022-07-29T05:43:58;5.90;;;5.33;;
19653;SDS011;9975;48.046;7.804;2022-07-29T05:46:24;5.50;;;5.00;;
19653;SDS011;9975;48.046;7.804;2022-07-29T05:48:49;5.50;;;5.00;;
19653;SDS011;9975;48.046;7.804;2022-07-29T05:51:15;5.33;;;4.83;;
19653;SDS011;9975;48.046;7.804;2022-07-29T05:53:40;9.60;;;5.30;;
19653;SDS011;9975;48.046;7.804;2022-07-29T05:56:06;6.87;;;5.07;;
19653;SDS011;9975;48.046;7.804;2022-07-29T05:58:41;5.10;;;4.50;;
19653;SDS011;9975;48.046;7.804;2022-07-29T06:01:06;6.07;;;5.43;;
19653;SDS011;9975;48.046;7.804;2022-07-29T06:03:32;5.77;;;5.17;;
19653;SDS011;9975;48.046;7.804;2022-07-29T06:05:58;6.00;;;5.13;;
19653;SDS011;9975;48.046;7.804;2022-07-29T06:08:24;8.57;;;5.27;;
19653;SDS011;9975;48.046;7.804;2022-07-29T06:10:49;6.67;;;4.73;;
19653;SDS011;9975;48.046;7.804;2022-07-29T06:13:15;5.90;;;4.93;;
19653;SDS011;9975;48.046;7.804;2022-07-29T06:15:41;6.23;;;5.63;;
19653;SDS011;9975;48.046;7.804;2022-07-29T06:18:07;5.03;;;4.17;;
19653;SDS011;9975;48.046;7.804;2022-07-29T06:20:34;6.33;;;4.80;;
19653;SDS011;9975;48.046;7.804;2022-07-29T06:23:00;6.23;;;4.43;;
19653;SDS011;9975;48.046;7.804;2022-07-29T06:25:26;4.77;;;4.23;;
19653;SDS011;9975;48.046;7.804;2022-07-29T06:27:54;7.37;;;5.00;;
19653;SDS011;9975;48.046;7.804;2022-07-29T06:30:19;5.03;;;4.53;;
19653;SDS011;9975;48.046;7.804;2022-07-29T06:32:45;4.80;;;4.40;;
19653;SDS011;9975;48.046;7.804;2022-07-29T06:35:11;5.20;;;4.80;;
19653;SDS011;9975;48.046;7.804;2022-07-29T06:37:36;8.70;;;5.10;;
19653;SDS011;9975;48.046;7.804;2022-07-29T06:40:03;17.00;;;5.00;;
19653;SDS011;9975;48.046;7.804;2022-07-29T06:42:47;3.90;;;3.60;;
19653;SDS011;9975;48.046;7.804;2022-07-29T06:45:12;12.27;;;3.80;;
19653;SDS011;9975;48.046;7.804;2022-07-29T06:47:38;5.10;;;4.70;;
19653;SDS011;9975;48.046;7.804;2022-07-29T06:50:04;6.40;;;4.60;;
19653;SDS011;9975;48.046;7.804;2022-07-29T06:52:30;6.33;;;5.53;;
19653;SDS011;9975;48.046;7.804;2022-07-29T06:54:56;4.90;;;4.50;;
19653;SDS011;9975;48.046;7.804;2022-07-29T06:57:22;4.43;;;3.50;;
19653;SDS011;9975;48.046;7.804;2022-07-29T06:59:47;6.50;;;4.50;;
19653;SDS011;9975;48.046;7.804;2022-07-29T07:02:13;15.03;;;4.67;;
19653;SDS011;9975;48.046;7.804;2022-07-29T07:04:39;5.87;;;4.13;;
19653;SDS011;9975;48.046;7.804;2022-07-29T07:07:04;6.00;;;4.17;;
19653;SDS011;9975;48.046;7.804;2022-07-29T07:09:30;7.40;;;4.33;;
19653;SDS011;9975;48.046;7.804;2022-07-29T07:11:55;10.13;;;4.10;;
19653;SDS011;9975;48.046;7.804;2022-07-29T07:14:21;6.43;;;3.47;;
19653;SDS011;9975;48.046;7.804;2022-07-29T07:16:47;5.07;;;3.73;;
19653;SDS011;9975;48.046;7.804;2022-07-29T07:19:12;4.60;;;3.67;;
19653;SDS011;9975;48.046;7.804;2022-07-29T07:21:38;3.60;;;3.30;;
19653;SDS011;9975;48.046;7.804;2022-07-29T07:24:04;4.27;;;3.90;;
19653;SDS011;9975;48.046;7.804;2022-07-29T07:26:30;4.53;;;4.03;;
19653;SDS011;9975;48.046;7.804;2022-07-29T07:28:55;5.00;;;3.53;;
19653;SDS011;9975;48.046;7.804;2022-07-29T07:34:17;4.27;;;3.37;;
19653;SDS011;9975;48.046;7.804;2022-07-29T07:36:43;3.90;;;3.60;;
19653;SDS011;9975;48.046;7.804;2022-07-29T07:39:08;6.00;;;4.17;;
19653;SDS011;9975;48.046;7.804;2022-07-29T07:41:34;4.17;;;3.80;;
19653;SDS011;9975;48.046;7.804;2022-07-29T07:43:59;7.37;;;4.10;;
19653;SDS011;9975;48.046;7.804;2022-07-29T07:46:25;5.60;;;4.07;;
19653;SDS011;9975;48.046;7.804;2022-07-29T07:48:51;3.40;;;3.10;;
19653;SDS011;9975;48.046;7.804;2022-07-29T07:51:17;7.27;;;3.80;;
19653;SDS011;9975;48.046;7.804;2022-07-29T07:53:43;5.33;;;3.80;;
19653;SDS011;9975;48.046;7.804;2022-07-29T07:56:09;4.80;;;3.60;;
19653;SDS011;9975;48.046;7.804;2022-07-29T07:58:35;4.97;;;3.70;;
19653;SDS011;9975;48.046;7.804;2022-07-29T08:01:01;5.03;;;3.40;;
19653;SDS011;9975;48.046;7.804;2022-07-29T08:03:26;6.53;;;3.80;;
19653;SDS011;9975;48.046;7.804;2022-07-29T08:05:52;4.40;;;3.70;;
19653;SDS011;9975;48.046;7.804;2022-07-29T08:08:19;4.20;;;3.90;;
19653;SDS011;9975;48.046;7.804;2022-07-29T08:10:45;5.83;;;3.93;;
19653;SDS011;9975;48.046;7.804;2022-07-29T08:13:17;4.20;;;3.80;;
19653;SDS011;9975;48.046;7.804;2022-07-29T08:15:44;4.60;;;3.40;;
19653;SDS011;9975;48.046;7.804;2022-07-29T08:18:11;4.17;;;3.77;;
19653;SDS011;9975;48.046;7.804;2022-07-29T08:20:37;5.00;;;4.10;;
19653;SDS011;9975;48.046;7.804;2022-07-29T08:23:05;7.03;;;3.80;;
19653;SDS011;9975;48.046;7.804;2022-07-29T08:25:33;3.80;;;3.50;;
19653;SDS011;9975;48.046;7.804;2022-07-29T08:28:00;4.77;;;3.80;;
19653;SDS011;9975;48.046;7.804;2022-07-29T08:30:26;4.40;;;4.00;;
19653;SDS011;9975;48.046;7.804;2022-07-29T08:32:52;5.67;;;4.00;;
19653;SDS011;9975;48.046;7.804;2022-07-29T08:35:18;4.83;;;3.67;;
19653;SDS011;9975;48.046;7.804;2022-07-29T08:37:44;4.30;;;3.30;;
19653;SDS011;9975;48.046;7.804;2022-07-29T08:40:10;4.87;;;3.90;;
19653;SDS011;9975;48.046;7.804;2022-07-29T08:42:36;3.53;;;3.33;;
19653;SDS011;9975;48.046;7.804;2022-07-29T08:45:03;5.13;;;4.13;;
19653;SDS011;9975;48.046;7.804;2022-07-29T08:47:29;3.63;;;3.33;;
19653;SDS011;9975;48.046;7.804;2022-07-29T08:49:55;4.53;;;3.07;;
19653;SDS011;9975;48.046;7.804;2022-07-29T08:52:20;6.97;;;3.63;;
19653;SDS011;9975;48.046;7.804;2022-07-29T08:54:49;4.23;;;3.57;;
19653;SDS011;9975;48.046;7.804;2022-07-29T08:57:17;7.80;;;3.10;;
19653;SDS011;9975;48.046;7.804;2022-07-29T08:59:43;3.60;;;3.30;;
19653;SDS011;9975;48.046;7.804;2022-07-29T09:02:12;3.73;;;3.43;;
19653;SDS011;9975;48.046;7.804;2022-07-29T09:04:44;5.60;;;4.07;;
19653;SDS011;9975;48.046;7.804;2022-07-29T09:07:10;3.40;;;3.10;;
19653;SDS011;9975;48.046;7.804;2022-07-29T09:09:40;4.33;;;3.73;;
19653;SDS011;9975;48.046;7.804;2022-07-29T09:12:07;3.40;;;3.20;;
19653;SDS011;9975;48.046;7.804;2022-07-29T09:14:34;4.67;;;3.43;;
19653;SDS011;9975;48.046;7.804;2022-07-29T09:17:00;5.10;;;3.97;;
19653;SDS011;9975;48.046;7.804;2022-07-29T09:19:28;6.70;;;3.13;;
19653;SDS011;9975;48.046;7.804;2022-07-29T09:21:56;5.73;;;3.70;;
19653;SDS011;9975;48.046;7.804;2022-07-29T09:24:22;4.13;;;3.30;;
19653;SDS011;9975;48.046;7.804;2022-07-29T09:26:48;6.00;;;3.40;;
19653;SDS011;9975;48.046;7.804;2022-07-29T09:29:18;6.20;;;3.57;;
19653;SDS011;9975;48.046;7.804;2022-07-29T09:31:46;3.83;;;3.40;;
19653;SDS011;9975;48.046;7.804;2022-07-29T09:34:15;4.70;;;3.37;;
19653;SDS011;9975;48.046;7.804;2022-07-29T09:36:46;4.67;;;3.77;;
19653;SDS011;9975;48.046;7.804;2022-07-29T09:39:13;4.90;;;3.23;;
19653;SDS011;9975;48.046;7.804;2022-07-29T09:41:47;3.90;;;3.60;;
19653;SDS011;9975;48.046;7.804;2022-07-29T09:44:14;3.97;;;2.90;;
19653;SDS011;9975;48.046;7.804;2022-07-29T09:46:51;3.37;;;3.03;;
19653;SDS011;9975;48.046;7.804;2022-07-29T09:49:20;4.00;;;3.60;;
19653;SDS011;9975;48.046;7.804;2022-07-29T09:51:46;9.27;;;3.80;;
19653;SDS011;9975;48.046;7.804;2022-07-29T09:54:22;7.10;;;3.50;;
19653;SDS011;9975;48.046;7.804;2022-07-29T09:56:49;5.23;;;2.93;;
19653;SDS011;9975;48.046;7.804;2022-07-29T09:59:15;14.30;;;3.53;;
19653;SDS011;9975;48.046;7.804;2022-07-29T10:01:41;7.03;;;3.60;;
19653;SDS011;9975;48.046;7.804;2022-07-29T10:04:07;9.77;;;3.43;;
19653;SDS011;9975;48.046;7.804;2022-07-29T10:06:32;3.20;;;2.90;;
19653;SDS011;9975;48.046;7.804;2022-07-29T10:09:19;4.53;;;3.10;;
19653;SDS011;9975;48.046;7.804;2022-07-29T10:11:44;8.50;;;2.87;;
19653;SDS011;9975;48.046;7.804;2022-07-29T10:14:33;3.53;;;3.20;;
19653;SDS011;9975;48.046;7.804;2022-07-29T10:16:59;3.40;;;2.87;;
19653;SDS011;9975;48.046;7.804;2022-07-29T10:19:28;3.60;;;3.27;;
19653;SDS011;9975;48.046;7.804;2022-07-29T10:21:56;7.30;;;3.10;;
19653;SDS011;9975;48.046;7.804;2022-07-29T10:24:28;3.93;;;3.53;;
19653;SDS011;9975;48.046;7.804;2022-07-29T10:26:55;3.77;;;3.47;;
19653;SDS011;9975;48.046;7.804;2022-07-29T10:29:22;4.00;;;3.27;;
19653;SDS011;9975;48.046;7.804;2022-07-29T10:31:53;3.60;;;3.10;;
19653;SDS011;9975;48.046;7.804;2022-07-29T10:34:44;4.67;;;4.33;;
19653;SDS011;9975;48.046;7.804;2022-07-29T10:40:31;3.40;;;3.10;;
19653;SDS011;9975;48.046;7.804;2022-07-29T10:43:41;4.27;;;2.70;;
19653;SDS011;9975;48.046;7.804;2022-07-29T10:46:08;3.77;;;3.20;;
19653;SDS011;9975;48.046;7.804;2022-07-29T10:48:35;6.10;;;3.30;;
19653;SDS011;9975;48.046;7.804;2022-07-29T10:51:21;4.90;;;3.20;;
19653;SDS011;9975;48.046;7.804;2022-07-29T10:53:49;3.43;;;3.00;;
19653;SDS011;9975;48.046;7.804;2022-07-29T10:56:25;3.57;;;3.30;;
19653;SDS011;9975;48.046;7.804;2022-07-29T11:01:43;5.03;;;4.30;;
19653;SDS011;9975;48.046;7.804;2022-07-29T11:04:09;3.60;;;3.10;;
19653;SDS011;9975;48.046;7.804;2022-07-29T11:09:25;3.30;;;2.97;;
19653;SDS011;9975;48.046;7.804;2022-07-29T11:11:51;6.13;;;3.97;;
19653;SDS011;9975;48.046;7.804;2022-07-29T11:14:18;4.60;;;3.43;;
19653;SDS011;9975;48.046;7.804;2022-07-29T11:17:04;4.07;;;3.67;;
19653;SDS011;9975;48.046;7.804;2022-07-29T11:19:31;7.47;;;3.27;;
19653;SDS011;9975;48.046;7.804;2022-07-29T11:21:57;4.00;;;3.37;;
19653;SDS011;9975;48.046;7.804;2022-07-29T11:24:24;4.90;;;2.90;;
19653;SDS011;9975;48.046;7.804;2022-07-29T11:29:38;4.60;;;3.00;;
19653;SDS011;9975;48.046;7.804;2022-07-29T11:32:41;4.60;;;3.33;;
19653;SDS011;9975;48.046;7.804;2022-07-29T11:37:38;4.97;;;2.97;;
19653;SDS011;9975;48.046;7.804;2022-07-29T11:47:28;3.40;;;3.10;;
19653;SDS011;9975;48.046;7.804;2022-07-29T11:49:55;3.87;;;3.50;;
19653;SDS011;9975;48.046;7.804;2022-07-29T11:52:32;3.73;;;3.30;;
19653;SDS011;9975;48.046;7.804;2022-07-29T11:54:58;4.60;;;3.10;;
19653;SDS011;9975;48.046;7.804;2022-07-29T11:57:27;3.93;;;3.20;;
19653;SDS011;9975;48.046;7.804;2022-07-29T11:59:53;3.90;;;3.60;;
19653;SDS011;9975;48.046;7.804;2022-07-29T12:02:22;6.40;;;3.00;;
19653;SDS011;9975;48.046;7.804;2022-07-29T12:04:51;4.00;;;3.50;;
19653;SDS011;9975;48.046;7.804;2022-07-29T12:07:19;3.47;;;3.00;;
19653;SDS011;9975;48.046;7.804;2022-07-29T12:09:58;4.90;;;4.07;;
19653;SDS011;9975;48.046;7.804;2022-07-29T12:12:24;3.23;;;3.03;;
19653;SDS011;9975;48.046;7.804;2022-07-29T12:14:50;3.50;;;3.20;;
19653;SDS011;9975;48.046;7.804;2022-07-29T12:19:52;3.90;;;3.40;;
19653;SDS011;9975;48.046;7.804;2022-07-29T12:22:26;5.50;;;2.87;;
19653;SDS011;9975;48.046;7.804;2022-07-29T12:24:53;5.13;;;3.40;;
19653;SDS011;9975;48.046;7.804;2022-07-29T12:27:19;5.70;;;3.97;;
19653;SDS011;9975;48.046;7.804;2022-07-29T12:30:02;8.10;;;4.60;;
19653;SDS011;9975;48.046;7.804;2022-07-29T12:32:33;3.60;;;3.10;;
19653;SDS011;9975;48.046;7.804;2022-07-29T12:35:07;3.50;;;3.30;;
19653;SDS011;9975;48.046;7.804;2022-07-29T12:37:44;5.70;;;3.47;;
19653;SDS011;9975;48.046;7.804;2022-07-29T12:40:13;3.63;;;3.33;;
19653;SDS011;9975;48.046;7.804;2022-07-29T12:42:41;9.73;;;4.50;;
19653;SDS011;9975;48.046;7.804;2022-07-29T12:45:29;6.57;;;2.87;;
19653;SDS011;9975;48.046;7.804;2022-07-29T12:47:56;8.17;;;3.67;;
19653;SDS011;9975;48.046;7.804;2022-07-29T12:50:22;4.33;;;3.23;;
19653;SDS011;9975;48.046;7.804;2022-07-29T12:52:47;3.30;;;3.00;;
19653;SDS011;9975;48.046;7.804;2022-07-29T12:55:13;6.17;;;3.33;;
19653;SDS011;9975;48.046;7.804;2022-07-29T12:57:49;3.40;;;3.10;;
19653;SDS011;9975;48.046;7.804;2022-07-29T13:00:22;3.20;;;2.90;;
19653;SDS011;9975;48.046;7.804;2022-07-29T13:02:58;6.70;;;3.73;;
19653;SDS011;9975;48.046;7.804;2022-07-29T13:05:38;4.20;;;3.90;;
19653;SDS011;9975;48.046;7.804;2022-07-29T13:08:12;2.90;;;2.70;;
19653;SDS011;9975;48.046;7.804;2022-07-29T13:10:39;10.43;;;3.57;;
19653;SDS011;9975;48.046;7.804;2022-07-29T13:13:06;3.93;;;2.80;;
19653;SDS011;9975;48.046;7.804;2022-07-29T13:15:37;3.00;;;2.80;;
19653;SDS011;9975;48.046;7.804;2022-07-29T13:21:10;6.00;;;4.23;;
19653;SDS011;9975;48.046;7.804;2022-07-29T13:23:40;4.87;;;3.73;;
19653;SDS011;9975;48.046;7.804;2022-07-29T13:26:06;3.83;;;3.03;;
19653;SDS011;9975;48.046;7.804;2022-07-29T13:28:33;4.37;;;3.30;;
19653;SDS011;9975;48.046;7.804;2022-07-29T13:30:59;4.40;;;2.90;;
19653;SDS011;9975;48.046;7.804;2022-07-29T13:33:25;3.87;;;3.37;;
19653;SDS011;9975;48.046;7.804;2022-07-29T13:35:50;5.97;;;3.47;;
19653;SDS011;9975;48.046;7.804;2022-07-29T13:38:16;3.57;;;3.23;;
19653;SDS011;9975;48.046;7.804;2022-07-29T13:40:42;3.83;;;2.90;;
19653;SDS011;9975;48.046;7.804;2022-07-29T13:43:11;3.90;;;3.30;;
19653;SDS011;9975;48.046;7.804;2022-07-29T13:45:36;2.93;;;2.63;;
19653;SDS011;9975;48.046;7.804;2022-07-29T13:48:02;4.97;;;2.77;;
19653;SDS011;9975;48.046;7.804;2022-07-29T13:50:28;3.73;;;2.40;;
19653;SDS011;9975;48.046;7.804;2022-07-29T13:52:54;4.67;;;3.20;;
19653;SDS011;9975;48.046;7.804;2022-07-29T13:55:20;4.00;;;2.90;;
19653;SDS011;9975;48.046;7.804;2022-07-29T13:57:46;3.00;;;2.63;;
19653;SDS011;9975;48.046;7.804;2022-07-29T14:00:12;5.07;;;2.47;;
19653;SDS011;9975;48.046;7.804;2022-07-29T14:02:38;2.60;;;2.40;;
19653;SDS011;9975;48.046;7.804;2022-07-29T14:05:07;5.60;;;3.40;;
19653;SDS011;9975;48.046;7.804;2022-07-29T14:07:35;2.57;;;2.37;;
19653;SDS011;9975;48.046;7.804;2022-07-29T14:10:01;4.90;;;3.23;;
19653;SDS011;9975;48.046;7.804;2022-07-29T14:12:27;3.10;;;2.63;;
19653;SDS011;9975;48.046;7.804;2022-07-29T14:14:53;3.90;;;2.37;;
19653;SDS011;9975;48.046;7.804;2022-07-29T14:17:18;2.53;;;2.33;;
19653;SDS011;9975;48.046;7.804;2022-07-29T14:19:44;4.50;;;2.70;;
19653;SDS011;9975;48.046;7.804;2022-07-29T14:22:10;3.07;;;2.50;;
19653;SDS011;9975;48.046;7.804;2022-07-29T14:24:36;3.43;;;2.50;;
19653;SDS011;9975;48.046;7.804;2022-07-29T14:27:02;2.60;;;2.40;;
19653;SDS011;9975;48.046;7.804;2022-07-29T14:29:27;3.70;;;2.33;;
19653;SDS011;9975;48.046;7.804;2022-07-29T14:31:53;6.43;;;2.10;;
19653;SDS011;9975;48.046;7.804;2022-07-29T14:34:19;6.40;;;2.87;;
19653;SDS011;9975;48.046;7.804;2022-07-29T14:36:44;2.80;;;2.30;;
19653;SDS011;9975;48.046;7.804;2022-07-29T14:39:10;2.53;;;2.00;;
19653;SDS011;9975;48.046;7.804;2022-07-29T14:41:36;10.73;;;2.40;;
19653;SDS011;9975;48.046;7.804;2022-07-29T14:44:01;3.17;;;2.30;;
19653;SDS011;9975;48.046;7.804;2022-07-29T14:46:27;2.50;;;2.07;;
19653;SDS011;9975;48.046;7.804;2022-07-29T14:48:53;4.00;;;2.30;;
19653;SDS011;9975;48.046;7.804;2022-07-29T14:51:19;2.30;;;2.10;;
19653;SDS011;9975;48.046;7.804;2022-07-29T14:53:45;5.73;;;1.93;;
19653;SDS011;9975;48.046;7.804;2022-07-29T14:56:10;2.63;;;2.27;;
19653;SDS011;9975;48.046;7.804;2022-07-29T14:58:36;5.57;;;2.60;;
19653;SDS011;9975;48.046;7.804;2022-07-29T15:01:02;2.43;;;1.83;;
19653;SDS011;9975;48.046;7.804;2022-07-29T15:03:28;2.20;;;1.70;;
19653;SDS011;9975;48.046;7.804;2022-07-29T15:05:55;3.87;;;2.20;;
19653;SDS011;9975;48.046;7.804;2022-07-29T15:08:21;2.47;;;1.87;;
19653;SDS011;9975;48.046;7.804;2022-07-29T15:10:47;3.00;;;1.80;;
19653;SDS011;9975;48.046;7.804;2022-07-29T15:13:13;4.03;;;1.90;;
19653;SDS011;9975;48.046;7.804;2022-07-29T15:15:39;4.00;;;2.60;;
19653;SDS011;9975;48.046;7.804;2022-07-29T15:18:06;2.87;;;1.90;;
19653;SDS011;9975;48.046;7.804;2022-07-29T15:20:31;2.77;;;2.10;;
19653;SDS011;9975;48.046;7.804;2022-07-29T15:22:57;3.80;;;1.87;;
19653;SDS011;9975;48.046;7.804;2022-07-29T15:25:23;5.23;;;1.83;;
19653;SDS011;9975;48.046;7.804;2022-07-29T15:27:50;1.80;;;1.70;;
19653;SDS011;9975;48.046;7.804;2022-07-29T15:30:16;4.30;;;1.57;;
19653;SDS011;9975;48.046;7.804;2022-07-29T15:32:44;2.10;;;2.00;;
19653;SDS011;9975;48.046;7.804;2022-07-29T15:35:10;2.33;;;1.90;;
19653;SDS011;9975;48.046;7.804;2022-07-29T15:37:39;3.43;;;2.07;;
19653;SDS011;9975;48.046;7.804;2022-07-29T15:40:05;5.77;;;1.67;;
19653;SDS011;9975;48.046;7.804;2022-07-29T15:42:31;2.20;;;1.73;;
19653;SDS011;9975;48.046;7.804;2022-07-29T15:45:00;2.00;;;1.80;;
19653;SDS011;9975;48.046;7.804;2022-07-29T15:47:27;1.60;;;1.50;;
19653;SDS011;9975;48.046;7.804;2022-07-29T15:49:53;5.10;;;1.90;;
19653;SDS011;9975;48.046;7.804;2022-07-29T15:52:19;3.30;;;2.13;;
19653;SDS011;9975;48.046;7.804;2022-07-29T15:54:45;1.93;;;1.80;;
19653;SDS011;9975;48.046;7.804;2022-07-29T15:57:11;4.23;;;1.90;;
19653;SDS011;9975;48.046;7.804;2022-07-29T15:59:37;1.70;;;1.60;;
19653;SDS011;9975;48.046;7.804;2022-07-29T16:02:03;2.17;;;1.60;;
19653;SDS011;9975;48.046;7.804;2022-07-29T16:04:29;2.90;;;1.63;;
19653;SDS011;9975;48.046;7.804;2022-07-29T16:06:55;1.77;;;1.53;;
19653;SDS011;9975;48.046;7.804;2022-07-29T16:09:21;1.47;;;1.30;;
19653;SDS011;9975;48.046;7.804;2022-07-29T16:11:47;2.83;;;1.50;;
19653;SDS011;9975;48.046;7.804;2022-07-29T16:14:15;2.40;;;2.10;;
19653;SDS011;9975;48.046;7.804;2022-07-29T16:16:41;10.90;;;2.20;;
19653;SDS011;9975;48.046;7.804;2022-07-29T16:19:07;4.03;;;1.70;;
19653;SDS011;9975;48.046;7.804;2022-07-29T16:21:34;1.53;;;1.43;;
19653;SDS011;9975;48.046;7.804;2022-07-29T16:24:00;3.43;;;2.03;;
19653;SDS011;9975;48.046;7.804;2022-07-29T16:26:26;4.50;;;1.63;;
19653;SDS011;9975;48.046;7.804;2022-07-29T16:28:52;4.03;;;1.50;;
19653;SDS011;9975;48.046;7.804;2022-07-29T16:31:17;1.70;;;1.57;;
19653;SDS011;9975;48.046;7.804;2022-07-29T16:33:46;1.90;;;1.80;;
19653;SDS011;9975;48.046;7.804;2022-07-29T16:36:18;1.77;;;1.67;;
19653;SDS011;9975;48.046;7.804;2022-07-29T16:38:44;4.50;;;1.93;;
19653;SDS011;9975;48.046;7.804;2022-07-29T16:41:11;1.70;;;1.60;;
19653;SDS011;9975;48.046;7.804;2022-07-29T16:43:36;2.47;;;1.50;;
19653;SDS011;9975;48.046;7.804;2022-07-29T16:46:02;2.30;;;1.57;;
19653;SDS011;9975;48.046;7.804;2022-07-29T16:48:28;1.70;;;1.50;;
19653;SDS011;9975;48.046;7.804;2022-07-29T16:50:53;8.40;;;1.77;;
19653;SDS011;9975;48.046;7.804;2022-07-29T16:53:20;1.40;;;1.30;;
19653;SDS011;9975;48.046;7.804;2022-07-29T16:55:45;1.90;;;1.80;;
19653;SDS011;9975;48.046;7.804;2022-07-29T16:58:11;4.10;;;2.20;;
19653;SDS011;9975;48.046;7.804;2022-07-29T17:00:37;3.80;;;1.80;;
19653;SDS011;9975;48.046;7.804;2022-07-29T17:03:03;1.70;;;1.60;;
19653;SDS011;9975;48.046;7.804;2022-07-29T17:05:29;1.63;;;1.53;;
19653;SDS011;9975;48.046;7.804;2022-07-29T17:07:55;2.30;;;2.10;;
19653;SDS011;9975;48.046;7.804;2022-07-29T17:10:22;2.00;;;1.80;;
19653;SDS011;9975;48.046;7.804;2022-07-29T17:12:48;1.30;;;1.20;;
19653;SDS011;9975;48.046;7.804;2022-07-29T17:15:14;1.83;;;1.50;;
19653;SDS011;9975;48.046;7.804;2022-07-29T17:17:42;2.40;;;1.60;;
19653;SDS011;9975;48.046;7.804;2022-07-29T17:20:08;1.67;;;1.57;;
19653;SDS011;9975;48.046;7.804;2022-07-29T17:22:35;1.50;;;1.40;;
19653;SDS011;9975;48.046;7.804;2022-07-29T17:25:02;3.40;;;1.63;;
19653;SDS011;9975;48.046;7.804;2022-07-29T17:27:28;2.33;;;1.67;;
19653;SDS011;9975;48.046;7.804;2022-07-29T17:29:54;1.47;;;1.37;;
19653;SDS011;9975;48.046;7.804;2022-07-29T17:32:20;1.70;;;1.60;;
19653;SDS011;9975;48.046;7.804;2022-07-29T17:34:45;2.10;;;1.60;;
19653;SDS011;9975;48.046;7.804;2022-07-29T17:37:11;1.70;;;1.60;;
19653;SDS011;9975;48.046;7.804;2022-07-29T17:39:37;2.93;;;1.50;;
19653;SDS011;9975;48.046;7.804;2022-07-29T17:42:05;4.13;;;1.37;;